createdAt,value
2023-04-04T00:00:43.055Z,1.73
2023-04-04T00:03:09.725Z,1.73
2023-04-04T00:05:36.182Z,1.20
2023-04-04T00:08:05.703Z,1.40
2023-04-04T00:10:31.811Z,1.35
2023-04-04T00:12:58.561Z,2.03
2023-04-04T00:15:24.701Z,1.40
2023-04-04T00:17:51.522Z,1.55
2023-04-04T00:20:17.919Z,1.48
2023-04-04T00:22:44.580Z,1.48
2023-04-04T00:25:10.889Z,1.70
2023-04-04T00:27:37.073Z,1.35
2023-04-04T00:30:03.480Z,1.27
2023-04-04T00:32:31.483Z,1.50
2023-04-04T00:34:57.760Z,1.60
2023-04-04T00:37:26.176Z,1.40
2023-04-04T00:39:52.277Z,1.15
2023-04-04T00:42:18.453Z,1.25
2023-04-04T00:44:44.706Z,1.77
2023-04-04T00:47:17.703Z,1.67
2023-04-04T00:49:46.113Z,1.60
2023-04-04T00:52:12.433Z,1.70
2023-04-04T00:54:39.489Z,1.58
2023-04-04T00:57:07.311Z,2.38
2023-04-04T00:59:33.646Z,2.47
2023-04-04T01:02:00.382Z,1.52
2023-04-04T01:04:28.874Z,1.60
2023-04-04T01:06:55.988Z,1.90
2023-04-04T01:09:22.863Z,1.55
2023-04-04T01:11:49.214Z,1.40
2023-04-04T01:14:15.904Z,1.42
2023-04-04T01:19:20.342Z,1.77
2023-04-04T01:21:47.131Z,1.30
2023-04-04T01:24:16.447Z,1.55
2023-04-04T01:26:42.595Z,2.35
2023-04-04T01:29:08.895Z,1.50
2023-04-04T01:31:45.626Z,1.30
2023-04-04T01:34:23.508Z,1.60
2023-04-04T01:37:21.315Z,1.13
2023-04-04T01:40:00.232Z,1.42
2023-04-04T01:42:28.357Z,1.42
2023-04-04T01:45:00.462Z,1.60
2023-04-04T01:47:26.696Z,1.48
2023-04-04T01:49:54.643Z,1.95
2023-04-04T01:52:21.294Z,1.52
2023-04-04T01:54:47.501Z,1.60
2023-04-04T01:57:14.866Z,1.73
2023-04-04T01:59:41.133Z,1.60
2023-04-04T02:02:07.320Z,1.65
2023-04-04T02:04:33.860Z,1.35
2023-04-04T02:07:01.963Z,1.45
2023-04-04T02:09:28.470Z,1.40
2023-04-04T02:11:55.959Z,1.17
2023-04-04T02:14:22.184Z,1.50
2023-04-04T02:16:51.788Z,1.90
2023-04-04T02:19:18.500Z,1.95
2023-04-04T02:21:44.705Z,1.60
2023-04-04T02:24:10.961Z,1.52
2023-04-04T02:26:40.518Z,1.45
2023-04-04T02:29:06.821Z,1.90
2023-04-04T02:31:34.112Z,1.48
2023-04-04T02:34:00.390Z,1.50
2023-04-04T02:36:27.348Z,1.60
2023-04-04T02:38:53.522Z,1.30
2023-04-04T02:41:19.572Z,1.65
2023-04-04T02:43:46.026Z,1.80
2023-04-04T02:46:21.064Z,1.40
2023-04-04T02:48:50.523Z,1.80
2023-04-04T02:51:19.481Z,1.63
2023-04-04T02:53:46.478Z,1.88
2023-04-04T02:56:12.912Z,1.88
2023-04-04T02:58:40.342Z,1.60
2023-04-04T03:01:07.674Z,1.80
2023-04-04T03:03:36.263Z,1.33
2023-04-04T03:06:05.354Z,1.80
2023-04-04T03:08:31.689Z,1.30
2023-04-04T03:11:00.137Z,1.95
2023-04-04T03:13:29.245Z,2.08
2023-04-04T03:16:04.797Z,1.50
2023-04-04T03:18:34.314Z,1.58
2023-04-04T03:21:00.446Z,1.48
2023-04-04T03:23:28.126Z,1.30
2023-04-04T03:25:54.861Z,1.50
2023-04-04T03:28:21.495Z,1.55
2023-04-04T03:30:49.222Z,1.55
2023-04-04T03:33:15.902Z,2.10
2023-04-04T03:35:42.286Z,1.38
2023-04-04T03:38:10.253Z,1.85
2023-04-04T03:40:41.870Z,1.50
2023-04-04T03:45:40.616Z,2.55
2023-04-04T03:48:06.926Z,1.95
2023-04-04T03:50:33.101Z,1.25
2023-04-04T03:53:01.651Z,1.70
2023-04-04T03:55:30.407Z,1.60
2023-04-04T03:57:57.117Z,1.60
2023-04-04T04:00:24.347Z,1.60
2023-04-04T04:02:50.613Z,1.73
2023-04-04T04:05:17.054Z,1.85
2023-04-04T04:07:45.473Z,1.52
2023-04-04T04:10:13.822Z,1.30
2023-04-04T04:12:39.948Z,1.35
2023-04-04T04:15:07.786Z,1.80
2023-04-04T04:17:33.944Z,1.48
2023-04-04T04:20:00.108Z,1.55
2023-04-04T04:22:29.438Z,2.28
2023-04-04T04:24:55.525Z,1.95
2023-04-04T04:27:21.791Z,1.35
2023-04-04T04:29:48.256Z,1.25
2023-04-04T04:32:18.002Z,1.58
2023-04-04T04:34:44.281Z,1.58
2023-04-04T04:37:13.397Z,1.80
2023-04-04T04:39:39.564Z,2.30
2023-04-04T04:42:07.999Z,1.52
2023-04-04T04:44:34.005Z,1.77
2023-04-04T04:47:03.522Z,1.73
2023-04-04T04:49:29.864Z,1.85
2023-04-04T04:51:56.024Z,1.80
2023-04-04T04:54:22.186Z,1.77
2023-04-04T04:56:48.245Z,1.80
2023-04-04T04:59:16.173Z,1.65
2023-04-04T05:01:42.789Z,1.73
2023-04-04T05:04:08.975Z,1.80
2023-04-04T05:06:35.950Z,1.83
2023-04-04T05:09:02.229Z,1.80
2023-04-04T05:11:28.470Z,1.92
2023-04-04T05:13:55.607Z,1.73
2023-04-04T05:16:21.764Z,1.88
2023-04-04T05:18:47.887Z,2.10
2023-04-04T05:21:14.343Z,1.77
2023-04-04T05:23:40.620Z,1.60
2023-04-04T05:26:11.402Z,1.75
2023-04-04T05:28:42.415Z,1.90
2023-04-04T05:31:08.656Z,1.52
2023-04-04T05:33:35.342Z,1.77
2023-04-04T05:36:02.353Z,1.92
2023-04-04T05:38:29.079Z,2.03
2023-04-04T05:40:55.366Z,1.52
2023-04-04T05:43:21.611Z,2.28
2023-04-04T05:45:47.724Z,2.13
2023-04-04T05:48:15.178Z,2.03
2023-04-04T05:50:45.553Z,1.90
2023-04-04T05:53:11.676Z,1.50
2023-04-04T05:55:37.891Z,1.88
2023-04-04T05:58:07.214Z,1.55
2023-04-04T06:00:33.503Z,1.60
2023-04-04T06:03:02.412Z,1.80
2023-04-04T06:05:31.608Z,1.83
2023-04-04T06:07:57.924Z,1.75
2023-04-04T06:10:24.084Z,1.70
2023-04-04T06:12:50.712Z,1.95
2023-04-04T06:15:16.813Z,2.00
2023-04-04T06:17:42.956Z,2.40
2023-04-04T06:20:09.783Z,1.52
2023-04-04T06:22:36.063Z,1.77
2023-04-04T06:25:02.371Z,2.50
2023-04-04T06:27:29.204Z,2.05
2023-04-04T06:29:55.311Z,2.13
2023-04-04T06:32:24.550Z,1.88
2023-04-04T06:34:53.220Z,1.90
2023-04-04T06:37:19.781Z,2.00
2023-04-04T06:39:47.328Z,1.70
2023-04-04T06:42:13.581Z,2.30
2023-04-04T06:44:39.739Z,1.77
2023-04-04T06:47:10.150Z,1.50
2023-04-04T06:49:39.118Z,1.85
2023-04-04T06:52:05.363Z,2.00
2023-04-04T06:54:31.601Z,2.53
2023-04-04T06:56:57.745Z,1.90
2023-04-04T06:59:23.978Z,1.50
2023-04-04T07:01:50.150Z,1.35
2023-04-04T07:04:19.754Z,1.58
2023-04-04T07:06:48.416Z,1.77
2023-04-04T07:09:25.940Z,1.42
2023-04-04T07:11:55.447Z,1.70
2023-04-04T07:14:24.611Z,1.33
2023-04-04T07:16:51.613Z,1.60
2023-04-04T07:19:21.767Z,1.73
2023-04-04T07:21:49.859Z,1.48
2023-04-04T07:24:18.665Z,1.30
2023-04-04T07:26:46.476Z,1.05
2023-04-04T07:29:13.366Z,1.23
2023-04-04T07:31:39.740Z,1.08
2023-04-04T07:34:10.210Z,1.52
2023-04-04T07:36:39.057Z,1.55
2023-04-04T07:39:05.063Z,0.98
2023-04-04T07:41:31.222Z,1.20
2023-04-04T07:43:57.340Z,1.25
2023-04-04T07:46:23.747Z,1.48
2023-04-04T07:49:00.195Z,1.25
2023-04-04T07:51:30.598Z,1.60
2023-04-04T07:53:57.825Z,1.10
2023-04-04T07:56:24.005Z,1.00
2023-04-04T07:58:50.203Z,1.00
2023-04-04T08:01:16.845Z,1.10
2023-04-04T08:03:43.114Z,1.20
2023-04-04T08:06:09.647Z,1.58
2023-04-04T08:08:37.459Z,1.40
2023-04-04T08:11:03.469Z,1.15
2023-04-04T08:13:29.627Z,1.20
2023-04-04T08:15:58.674Z,1.63
2023-04-04T08:18:24.923Z,1.10
2023-04-04T08:20:51.009Z,1.50
2023-04-04T08:23:18.064Z,1.02
2023-04-04T08:25:46.239Z,1.85
2023-04-04T08:28:13.439Z,0.90
2023-04-04T08:30:39.736Z,1.10
2023-04-04T08:33:09.058Z,1.13
2023-04-04T08:35:35.319Z,1.20
2023-04-04T08:38:07.876Z,1.00
2023-04-04T08:40:34.910Z,1.13
2023-04-04T08:43:01.620Z,1.00
2023-04-04T08:45:28.321Z,1.30
2023-04-04T08:47:55.068Z,0.85
2023-04-04T08:50:21.262Z,0.93
2023-04-04T08:52:48.527Z,1.10
2023-04-04T08:56:01.457Z,1.05
2023-04-04T08:58:27.564Z,0.80
2023-04-04T09:00:54.486Z,1.10
2023-04-04T09:08:59.424Z,0.95
2023-04-04T09:11:26.564Z,0.98
2023-04-04T09:13:54.418Z,0.90
2023-04-04T09:16:20.998Z,1.20
2023-04-04T09:18:47.692Z,1.25
2023-04-04T09:21:17.567Z,1.13
2023-04-04T09:23:44.640Z,0.82
2023-04-04T09:26:12.762Z,1.00
2023-04-04T09:28:38.952Z,0.60
2023-04-04T09:33:50.481Z,1.02
2023-04-04T09:36:19.375Z,0.95
2023-04-04T09:38:48.666Z,1.00
2023-04-04T09:41:17.089Z,0.90
2023-04-04T09:43:46.518Z,0.82
2023-04-04T09:46:12.869Z,1.23
2023-04-04T09:48:38.935Z,1.35
2023-04-04T09:51:14.186Z,0.90
2023-04-04T09:53:43.172Z,1.10
2023-04-04T09:56:22.025Z,0.90
2023-04-04T09:59:02.399Z,0.85
2023-04-04T10:01:32.240Z,1.15
2023-04-04T10:03:58.929Z,0.93
2023-04-04T10:06:25.374Z,0.75
2023-04-04T10:08:52.549Z,1.75
2023-04-04T10:11:30.323Z,0.95
2023-04-04T10:13:58.730Z,1.40
2023-04-04T10:16:25.700Z,0.85
2023-04-04T10:18:54.734Z,1.55
2023-04-04T10:21:21.350Z,0.90
2023-04-04T10:23:48.654Z,0.98
2023-04-04T10:26:15.464Z,1.00
2023-04-04T10:28:45.293Z,1.35
2023-04-04T10:31:21.931Z,1.27
2023-04-04T10:34:11.525Z,1.00
2023-04-04T10:36:41.366Z,1.30
2023-04-04T10:39:15.183Z,0.85
2023-04-04T10:41:41.976Z,0.90
2023-04-04T10:44:23.702Z,0.75
2023-04-04T10:46:53.296Z,0.80
2023-04-04T10:49:21.273Z,0.95
2023-04-04T10:51:55.763Z,0.90
2023-04-04T10:54:24.756Z,0.82
2023-04-04T10:56:55.339Z,1.05
2023-04-04T10:59:24.872Z,1.08
2023-04-04T11:02:00.864Z,0.73
2023-04-04T11:04:33.940Z,0.88
2023-04-04T11:07:08.461Z,0.95
2023-04-04T11:09:51.564Z,0.70
2023-04-04T11:12:46.827Z,1.05
2023-04-04T11:15:14.255Z,1.10
2023-04-04T11:17:43.164Z,1.13
2023-04-04T11:20:12.966Z,0.98
2023-04-04T11:22:42.282Z,0.73
2023-04-04T11:25:50.830Z,0.80
2023-04-04T11:28:35.299Z,0.70
2023-04-04T11:31:21.176Z,0.80
2023-04-04T11:34:00.435Z,0.88
2023-04-04T11:36:37.019Z,1.23
2023-04-04T11:39:09.200Z,0.73
2023-04-04T11:41:51.124Z,0.90
2023-04-04T11:44:21.223Z,0.82
2023-04-04T11:46:49.774Z,0.70
2023-04-04T11:49:18.348Z,0.70
2023-04-04T11:51:48.318Z,1.13
2023-04-04T11:54:17.930Z,0.80
2023-04-04T11:56:44.922Z,0.70
2023-04-04T11:59:19.004Z,0.77
2023-04-04T12:01:46.434Z,0.60
2023-04-04T12:04:17.002Z,0.90
2023-04-04T12:06:43.776Z,1.05
2023-04-04T12:09:16.169Z,0.60
2023-04-04T12:11:50.609Z,0.93
2023-04-04T12:14:23.295Z,0.77
2023-04-04T12:16:53.899Z,0.95
2023-04-04T12:19:22.848Z,0.60
2023-04-04T12:21:49.963Z,0.57
2023-04-04T12:24:16.492Z,0.80
2023-04-04T12:26:44.568Z,0.82
2023-04-04T12:29:13.634Z,0.68
2023-04-04T12:31:42.214Z,0.80
2023-04-04T12:34:27.603Z,0.95
2023-04-04T12:36:57.571Z,1.00
2023-04-04T12:39:29.628Z,0.70
2023-04-04T12:42:00.976Z,0.80
2023-04-04T12:44:30.259Z,0.70
2023-04-04T12:47:00.898Z,1.55
2023-04-04T12:49:30.089Z,0.80
2023-04-04T12:52:03.334Z,0.90
2023-04-04T12:54:33.978Z,0.80
2023-04-04T12:57:04.029Z,0.90
2023-04-04T12:59:32.047Z,0.70
2023-04-04T13:02:03.706Z,0.88
2023-04-04T13:04:30.143Z,0.98
2023-04-04T13:06:56.477Z,0.88
2023-04-04T13:09:23.335Z,0.80
2023-04-04T13:12:13.479Z,0.80
2023-04-04T13:15:02.378Z,1.00
2023-04-04T13:17:48.977Z,0.90
2023-04-04T13:20:17.661Z,0.50
2023-04-04T13:22:44.161Z,0.90
2023-04-04T13:25:11.064Z,0.65
2023-04-04T13:27:38.025Z,0.85
2023-04-04T13:30:08.070Z,0.80
2023-04-04T13:32:36.201Z,0.63
2023-04-04T13:35:06.159Z,0.80
2023-04-04T13:37:32.506Z,0.70
2023-04-04T13:40:01.979Z,0.98
2023-04-04T13:42:31.062Z,0.70
2023-04-04T13:44:57.650Z,0.90
2023-04-04T13:47:27.017Z,0.93
2023-04-04T13:49:54.482Z,0.60
2023-04-04T13:52:21.866Z,0.90
2023-04-04T13:54:48.783Z,0.82
2023-04-04T13:57:14.983Z,0.57
2023-04-04T13:59:41.183Z,1.10
2023-04-04T14:02:07.376Z,0.70
2023-04-04T14:04:33.655Z,0.80
2023-04-04T14:06:59.944Z,0.77
2023-04-04T14:09:26.298Z,0.73
2023-04-04T14:11:52.333Z,0.80
2023-04-04T14:14:18.742Z,1.20
2023-04-04T14:16:45.120Z,0.73
2023-04-04T14:19:11.339Z,0.75
2023-04-04T14:21:40.756Z,1.00
2023-04-04T14:24:10.354Z,0.82
2023-04-04T14:26:37.333Z,1.10
2023-04-04T14:29:03.385Z,0.90
2023-04-04T14:31:32.225Z,0.82
2023-04-04T14:33:58.499Z,0.77
2023-04-04T14:36:24.741Z,0.70
2023-04-04T14:38:51.421Z,0.70
2023-04-04T14:41:17.652Z,0.85
2023-04-04T14:43:44.549Z,0.70
2023-04-04T14:46:13.387Z,0.70
2023-04-04T14:48:39.371Z,0.80
2023-04-04T14:51:05.560Z,0.75
2023-04-04T14:53:31.670Z,0.80
2023-04-04T14:56:00.517Z,0.60
2023-04-04T14:58:26.734Z,0.70
2023-04-04T15:00:55.118Z,0.80
2023-04-04T15:03:21.486Z,0.70
2023-04-04T15:05:48.524Z,0.70
2023-04-04T15:08:15.073Z,0.80
2023-04-04T15:10:41.686Z,0.85
2023-04-04T15:13:08.084Z,0.82
2023-04-04T15:15:40.259Z,1.02
2023-04-04T15:18:06.579Z,0.70
2023-04-04T15:20:32.755Z,0.70
2023-04-04T15:22:58.955Z,1.23
2023-04-04T15:25:25.085Z,0.90
2023-04-04T15:27:53.176Z,0.82
2023-04-04T15:30:20.941Z,0.90
2023-04-04T15:32:47.433Z,0.60
2023-04-04T15:35:18.510Z,0.73
2023-04-04T15:37:45.721Z,0.80
2023-04-04T15:40:13.119Z,0.93
2023-04-04T15:42:39.283Z,0.80
2023-04-04T15:45:08.231Z,0.90
2023-04-04T15:47:34.585Z,1.10
2023-04-04T15:50:07.458Z,1.40
2023-04-04T15:52:38.233Z,0.93
2023-04-04T15:55:07.037Z,1.40
2023-04-04T15:57:33.249Z,0.88
2023-04-04T15:59:59.382Z,0.80
2023-04-04T16:02:25.640Z,0.98
2023-04-04T16:04:51.786Z,1.00
2023-04-04T16:07:18.675Z,0.75
2023-04-04T16:09:44.844Z,1.30
2023-04-04T16:12:11.055Z,0.90
2023-04-04T16:14:37.263Z,1.15
2023-04-04T16:17:04.750Z,1.25
2023-04-04T16:19:31.728Z,0.95
2023-04-04T16:21:58.735Z,1.15
2023-04-04T16:24:24.933Z,0.68
2023-04-04T16:26:51.092Z,0.80
2023-04-04T16:29:19.750Z,0.65
2023-04-04T16:31:46.235Z,0.90
2023-04-04T16:34:12.394Z,0.95
2023-04-04T16:36:40.293Z,0.80
2023-04-04T16:39:06.944Z,1.10
2023-04-04T16:41:40.189Z,0.82
2023-04-04T16:44:06.414Z,1.13
2023-04-04T16:46:32.552Z,1.25
2023-04-04T16:48:58.851Z,0.70
2023-04-04T16:51:26.737Z,0.95
2023-04-04T16:53:52.773Z,1.13
2023-04-04T16:56:19.865Z,1.13
2023-04-04T16:58:46.460Z,0.85
2023-04-04T17:01:14.629Z,1.27
2023-04-04T17:03:41.829Z,0.85
2023-04-04T17:06:08.129Z,0.80
2023-04-04T17:08:34.182Z,1.05
2023-04-04T17:11:00.576Z,0.77
2023-04-04T17:13:29.840Z,0.90
2023-04-04T17:15:58.610Z,0.90
2023-04-04T17:18:25.686Z,1.20
2023-04-04T17:20:52.111Z,1.20
2023-04-04T17:23:20.640Z,0.73
2023-04-04T17:25:46.760Z,1.13
2023-04-04T17:28:14.015Z,0.90
2023-04-04T17:30:40.845Z,0.80
2023-04-04T17:33:07.669Z,1.23
2023-04-04T17:35:33.826Z,1.35
2023-04-04T17:38:01.300Z,1.10
2023-04-04T17:40:33.656Z,0.80
2023-04-04T17:42:59.930Z,0.90
2023-04-04T17:45:27.135Z,1.23
2023-04-04T17:47:54.119Z,1.02
2023-04-04T17:50:20.313Z,1.23
2023-04-04T17:52:46.384Z,1.35
2023-04-04T17:55:13.447Z,1.17
2023-04-04T17:57:44.495Z,1.20
2023-04-04T18:00:11.375Z,1.10
2023-04-04T18:02:38.759Z,1.33
2023-04-04T18:05:05.589Z,1.50
2023-04-04T18:07:31.854Z,1.25
2023-04-04T18:09:58.273Z,1.23
2023-04-04T18:12:26.765Z,1.33
2023-04-04T18:14:53.077Z,1.10
2023-04-04T18:17:19.324Z,1.40
2023-04-04T18:19:46.584Z,1.30
2023-04-04T18:22:13.011Z,1.48
2023-04-04T18:24:40.887Z,1.33
2023-04-04T18:27:08.820Z,1.58
2023-04-04T18:29:35.285Z,1.25
2023-04-04T18:32:03.251Z,1.30
2023-04-04T18:34:32.338Z,1.25
2023-04-04T18:36:59.848Z,1.50
2023-04-04T18:39:26.140Z,1.00
2023-04-04T18:41:52.420Z,1.88
2023-04-04T18:44:18.695Z,1.40
2023-04-04T18:46:45.129Z,1.30
2023-04-04T18:49:11.460Z,1.45
2023-04-04T18:51:37.972Z,1.42
2023-04-04T18:54:06.088Z,1.20
2023-04-04T18:56:32.413Z,1.45
2023-04-04T18:58:58.709Z,1.45
2023-04-04T19:01:26.524Z,1.70
2023-04-04T19:03:55.150Z,1.30
2023-04-04T19:06:26.279Z,1.60
2023-04-04T19:08:58.266Z,1.30
2023-04-04T19:11:25.026Z,1.85
2023-04-04T19:13:53.821Z,1.48
2023-04-04T19:16:20.067Z,1.65
2023-04-04T19:18:46.491Z,1.30
2023-04-04T19:21:12.641Z,1.75
2023-04-04T19:23:40.490Z,1.60
2023-04-04T19:26:07.314Z,1.83
2023-04-04T19:28:33.429Z,1.40
2023-04-04T19:31:01.731Z,1.70
2023-04-04T19:33:28.037Z,1.85
2023-04-04T19:35:55.406Z,1.88
2023-04-04T19:38:28.662Z,1.45
2023-04-04T19:40:59.989Z,1.80
2023-04-04T19:43:27.524Z,1.77
2023-04-04T19:45:56.085Z,1.80
2023-04-04T19:48:53.039Z,2.03
2023-04-04T19:51:25.467Z,2.38
2023-04-04T19:53:58.880Z,2.03
2023-04-04T19:56:29.664Z,2.40
2023-04-04T19:58:58.222Z,1.65
2023-04-04T20:01:44.709Z,1.95
2023-04-04T20:04:13.611Z,1.38
2023-04-04T20:06:41.128Z,1.80
2023-04-04T20:09:12.412Z,1.60
2023-04-04T20:11:38.703Z,1.45
2023-04-04T20:14:08.537Z,2.63
2023-04-04T20:16:35.494Z,1.45
2023-04-04T20:19:06.211Z,1.70
2023-04-04T20:21:34.363Z,2.08
2023-04-04T20:24:03.970Z,2.22
2023-04-04T20:26:57.770Z,2.00
2023-04-04T20:29:32.029Z,2.30
2023-04-04T20:31:59.352Z,2.10
2023-04-04T20:34:32.110Z,2.30
2023-04-04T20:36:58.811Z,2.60
2023-04-04T20:39:46.626Z,2.00
2023-04-04T20:42:19.607Z,2.00
2023-04-04T20:44:50.080Z,2.08
2023-04-04T20:47:47.471Z,2.00
2023-04-04T20:50:26.807Z,2.28
2023-04-04T20:52:56.372Z,2.17
2023-04-04T20:55:25.092Z,2.55
2023-04-04T20:57:52.740Z,2.08
2023-04-04T21:00:28.110Z,2.15
2023-04-04T21:03:00.128Z,2.30
2023-04-04T21:05:34.827Z,2.60
2023-04-04T21:08:02.747Z,2.20
2023-04-04T21:10:28.884Z,2.22
2023-04-04T21:13:00.341Z,2.60
2023-04-04T21:15:30.760Z,2.65
2023-04-04T21:18:11.413Z,2.10
2023-04-04T21:20:46.570Z,2.67
2023-04-04T21:23:25.030Z,2.45
2023-04-04T21:25:57.852Z,2.88
2023-04-04T21:28:42.934Z,2.22
2023-04-04T21:31:13.186Z,2.22
2023-04-04T21:33:46.570Z,1.70
2023-04-04T21:36:24.280Z,2.42
2023-04-04T21:38:54.873Z,2.13
2023-04-04T21:44:08.938Z,2.60
2023-04-04T21:46:37.064Z,2.50
2023-04-04T21:49:04.378Z,2.35
2023-04-04T21:51:30.786Z,2.13
2023-04-04T21:53:57.428Z,1.60
2023-04-04T21:56:32.460Z,2.17
2023-04-04T21:58:59.933Z,2.30
2023-04-04T22:01:26.489Z,2.58
2023-04-04T22:03:53.818Z,2.90
2023-04-04T22:06:22.389Z,2.60
2023-04-04T22:08:48.633Z,3.03
2023-04-04T22:11:20.547Z,2.88
2023-04-04T22:13:47.824Z,2.72
2023-04-04T22:16:18.346Z,2.58
2023-04-04T22:18:53.321Z,3.00
2023-04-04T22:21:25.559Z,2.53
2023-04-04T22:23:55.063Z,2.08
2023-04-04T22:26:34.103Z,2.42
2023-04-04T22:29:02.392Z,2.75
2023-04-04T22:31:28.702Z,2.15
2023-04-04T22:33:55.548Z,2.42
2023-04-04T22:36:25.248Z,2.30
2023-04-04T22:38:56.166Z,2.40
2023-04-04T22:41:27.998Z,2.70
2023-04-04T22:43:54.661Z,2.42
2023-04-04T22:46:20.977Z,2.30
2023-04-04T22:48:47.498Z,2.05
2023-04-04T22:51:14.823Z,2.60
2023-04-04T22:53:45.337Z,2.38
2023-04-04T22:56:15.463Z,2.50
2023-04-04T22:58:41.861Z,2.25
2023-04-04T23:01:07.908Z,2.17
2023-04-04T23:03:34.281Z,2.50
2023-04-04T23:06:00.960Z,1.85
2023-04-04T23:08:30.060Z,2.33
2023-04-04T23:10:56.255Z,2.30
2023-04-04T23:13:22.642Z,2.55
2023-04-04T23:15:48.983Z,2.53
2023-04-04T23:18:16.996Z,2.45
2023-04-04T23:20:43.701Z,2.67
2023-04-04T23:23:10.118Z,2.05
2023-04-04T23:25:38.600Z,2.70
2023-04-04T23:28:04.756Z,2.90
2023-04-04T23:30:31.113Z,2.85
2023-04-04T23:32:57.338Z,2.30
2023-04-04T23:35:23.641Z,2.50
2023-04-04T23:37:49.716Z,2.72
2023-04-04T23:40:15.891Z,2.60
2023-04-04T23:42:41.901Z,2.72
2023-04-04T23:45:08.735Z,2.30
2023-04-04T23:47:36.123Z,2.05
2023-04-04T23:50:02.550Z,2.58
2023-04-04T23:52:28.819Z,2.35
2023-04-04T23:54:57.333Z,2.10
2023-04-04T23:57:23.729Z,2.30
2023-04-04T23:59:50.098Z,2.22
